Time;durP1;ratioP1;P1;durP2;ratioP2;P2;SDS_P1;SDS_P2;PMS_P1;PMS_P2;Temp;Humidity;BMP_temperature;BMP_pressure;BME280_temperature;BME280_humidity;BME280_pressure;Samples;Min_cycle;Max_cycle;Signal;HPM_P1;HPM_P2
2022/10/23 00:02:38;;;;;;;7.20;3.45;;;21.50;83.60;;;;;;10535896;28;20067;-38
2022/10/23 00:07:40;;;;;;;9.93;3.53;;;21.50;83.60;;;;;;10533886;28;20084;-39
2022/10/23 00:12:43;;;;;;;12.27;3.53;;;21.40;84.10;;;;;;10529206;28;20056;-39
2022/10/23 00:17:45;;;;;;;7.10;2.85;;;21.40;83.60;;;;;;10526820;28;20432;-39
2022/10/23 00:22:47;;;;;;;9.73;3.25;;;21.40;83.50;;;;;;10536878;28;20075;-38
2022/10/23 00:27:50;;;;;;;8.52;2.97;;;21.90;83.80;;;;;;10531368;28;20510;-38
2022/10/23 00:32:52;;;;;;;7.65;2.97;;;21.40;83.50;;;;;;10531367;28;20464;-37
2022/10/23 00:37:54;;;;;;;8.52;3.38;;;21.30;83.40;;;;;;10532000;28;20048;-39
2022/10/23 00:42:57;;;;;;;7.82;3.25;;;21.30;83.50;;;;;;10531714;28;20040;-38
2022/10/23 00:48:00;;;;;;;5.43;2.78;;;21.30;83.30;;;;;;10528056;28;20506;-39
2022/10/23 00:53:04;;;;;;;5.78;3.15;;;21.40;83.40;;;;;;10531497;28;20040;-38
2022/10/23 00:58:07;;;;;;;7.82;3.13;;;21.30;83.60;;;;;;10532524;28;22159;-38
2022/10/23 01:03:09;;;;;;;10.40;3.03;;;21.30;83.50;;;;;;10524239;28;20140;-35
2022/10/23 01:08:20;;;;;;;7.25;2.85;;;21.30;83.40;;;;;;10530837;28;20048;-40
2022/10/23 01:13:31;;;;;;;6.60;2.55;;;21.30;83.50;;;;;;10532778;28;20040;-39
2022/10/23 01:18:40;;;;;;;5.43;2.50;;;21.30;83.50;;;;;;10531654;28;20334;-39
2022/10/23 01:24:07;;;;;;;7.55;2.78;;;21.30;83.40;;;;;;10535806;28;20400;-38
2022/10/23 01:29:18;;;;;;;8.60;2.70;;;21.30;83.50;;;;;;10528598;28;20083;-35
2022/10/23 01:34:26;;;;;;;7.53;2.92;;;21.20;83.30;;;;;;10532305;28;20055;-39
2022/10/23 01:39:31;;;;;;;6.78;2.40;;;21.20;83.40;;;;;;10531889;28;20138;-38
2022/10/23 01:44:39;;;;;;;6.68;2.60;;;21.20;83.40;;;;;;10526627;28;20050;-38
2022/10/23 01:49:42;;;;;;;7.90;2.38;;;21.20;83.50;;;;;;10528064;28;20109;-38
2022/10/23 01:54:47;;;;;;;6.78;2.70;;;21.20;83.40;;;;;;10528864;28;20052;-38
2022/10/23 01:59:53;;;;;;;5.25;2.85;;;21.20;83.40;;;;;;10532818;28;20131;-38
2022/10/23 02:04:59;;;;;;;6.18;2.30;;;21.20;83.50;;;;;;10527671;28;20130;-38
2022/10/23 02:10:03;;;;;;;7.88;2.65;;;21.20;83.40;;;;;;10532277;28;20536;-39
2022/10/23 02:15:13;;;;;;;4.53;2.25;;;21.20;83.30;;;;;;10532773;28;20051;-39
2022/10/23 02:20:20;;;;;;;5.75;2.53;;;21.20;83.40;;;;;;10529984;28;20131;-39
2022/10/23 02:25:27;;;;;;;4.95;2.30;;;21.20;83.30;;;;;;10535284;28;20051;-38
2022/10/23 02:30:31;;;;;;;4.03;2.00;;;21.10;83.20;;;;;;10531306;28;20117;-39
2022/10/23 02:35:33;;;;;;;4.38;1.75;;;21.10;83.40;;;;;;10527605;28;20051;-39
2022/10/23 02:40:41;;;;;;;3.72;1.75;;;21.40;83.60;;;;;;10528998;28;20048;-38
2022/10/23 02:45:52;;;;;;;7.75;2.65;;;21.10;83.40;;;;;;10527624;28;20445;-39
2022/10/23 02:51:01;;;;;;;6.38;2.63;;;21.10;83.40;;;;;;10528652;28;20066;-39
2022/10/23 02:56:09;;;;;;;6.53;1.90;;;21.10;83.50;;;;;;10529345;28;20139;-37
2022/10/23 03:01:15;;;;;;;5.40;2.22;;;21.10;83.50;;;;;;10526976;28;20048;-38
2022/10/23 03:06:17;;;;;;;3.38;1.70;;;21.00;83.50;;;;;;10532829;28;20044;-38
2022/10/23 03:11:20;;;;;;;3.80;1.80;;;21.10;83.50;;;;;;10537395;28;20105;-39
2022/10/23 03:16:23;;;;;;;;;;;21.10;83.50;;;;;;10539552;28;20040;-40
2022/10/23 03:21:24;;;;;;;4.03;1.80;;;20.40;83.20;;;;;;10538508;28;20368;-39
2022/10/23 03:26:26;;;;;;;8.65;2.10;;;21.00;83.80;;;;;;10538184;28;20081;-39
2022/10/23 03:31:30;;;;;;;2.63;1.30;;;21.00;83.60;;;;;;10536522;28;20460;-39
2022/10/23 03:36:31;;;;;;;4.47;1.77;;;21.00;83.60;;;;;;10535738;28;20157;-39
2022/10/23 03:41:33;;;;;;;5.03;1.77;;;21.00;83.40;;;;;;10536999;28;20086;-35
2022/10/23 03:46:37;;;;;;;1.83;1.50;;;21.00;83.50;;;;;;10536174;28;20097;-39
2022/10/23 03:51:40;;;;;;;2.63;1.77;;;21.00;83.70;;;;;;10536362;28;20484;-39
2022/10/23 03:56:42;;;;;;;3.90;2.20;;;21.00;83.70;;;;;;10535976;28;20105;-39
2022/10/23 04:01:45;;;;;;;2.13;1.70;;;21.00;83.60;;;;;;10535165;28;20079;-39
2022/10/23 04:06:47;;;;;;;2.40;1.63;;;20.90;83.70;;;;;;10535467;28;20145;-38
2022/10/23 04:11:49;;;;;;;2.72;1.40;;;21.00;83.70;;;;;;10534913;28;20102;-38
2022/10/23 04:16:52;;;;;;;2.42;1.50;;;20.90;83.70;;;;;;10535865;28;20109;-37
2022/10/23 04:21:55;;;;;;;3.35;1.50;;;20.90;83.80;;;;;;10535594;28;20443;-38
2022/10/23 04:26:57;;;;;;;4.05;1.58;;;20.90;83.70;;;;;;10535099;28;20036;-38
2022/10/23 04:32:00;;;;;;;4.75;1.80;;;20.90;83.60;;;;;;10536317;28;20127;-39
2022/10/23 04:37:02;;;;;;;2.58;1.42;;;20.90;83.90;;;;;;10534927;28;20148;-39
2022/10/23 04:42:04;;;;;;;2.08;1.33;;;20.90;83.90;;;;;;10535281;28;20075;-38
2022/10/23 04:47:07;;;;;;;2.97;1.58;;;20.90;83.70;;;;;;10534079;28;20358;-35
2022/10/23 04:52:09;;;;;;;3.95;1.60;;;20.90;83.70;;;;;;10533824;28;20044;-39
2022/10/23 04:57:11;;;;;;;3.45;1.50;;;20.90;83.80;;;;;;10533184;28;20083;-35
2022/10/23 05:02:14;;;;;;;1.83;1.38;;;20.90;83.90;;;;;;10534165;28;20071;-38
2022/10/23 05:07:16;;;;;;;2.92;1.58;;;21.50;84.10;;;;;;10534238;28;20131;-39
2022/10/23 05:12:18;;;;;;;;;;;20.80;83.80;;;;;;10530324;28;20432;-40
2022/10/23 05:17:26;;;;;;;3.57;1.70;;;20.80;84.00;;;;;;10535270;28;19919;-40
2022/10/23 05:22:32;;;;;;;2.97;1.58;;;20.70;83.70;;;;;;10535400;28;20079;-40
2022/10/23 05:27:33;;;;;;;2.78;1.52;;;20.80;83.70;;;;;;10530855;28;20079;-39
2022/10/23 05:32:37;;;;;;;3.17;1.40;;;21.60;84.20;;;;;;10532826;28;20135;-38
2022/10/23 05:37:43;;;;;;;1.50;1.20;;;20.80;83.70;;;;;;10533594;28;20560;-39
2022/10/23 05:42:45;;;;;;;3.03;1.13;;;20.80;83.80;;;;;;10530911;28;20135;-39
2022/10/23 05:47:49;;;;;;;2.75;1.70;;;20.80;83.80;;;;;;10532547;28;20044;-39
2022/10/23 05:52:50;;;;;;;1.88;1.48;;;20.80;83.90;;;;;;10533025;28;21529;-40
2022/10/23 05:57:52;;;;;;;2.50;1.33;;;20.80;83.80;;;;;;10532520;28;20108;-39
2022/10/23 06:02:55;;;;;;;2.80;1.42;;;20.80;83.80;;;;;;10532439;28;20536;-39
2022/10/23 06:07:57;;;;;;;2.85;1.60;;;20.80;83.80;;;;;;10531878;28;20063;-38
2022/10/23 06:12:59;;;;;;;;;;;20.80;83.90;;;;;;10531211;28;20087;-38
2022/10/23 06:18:03;;;;;;;2.30;1.40;;;20.70;83.90;;;;;;10530047;28;19962;-39
2022/10/23 06:23:06;;;;;;;2.50;1.45;;;20.70;83.90;;;;;;10532095;28;20134;-37
2022/10/23 06:28:08;;;;;;;1.95;1.10;;;20.80;83.90;;;;;;10529476;28;20098;-39
2022/10/23 06:33:11;;;;;;;1.80;1.48;;;20.70;84.00;;;;;;10530909;28;20048;-39
2022/10/23 06:38:13;;;;;;;2.95;1.40;;;20.10;83.70;;;;;;10529478;28;20046;-39
2022/10/23 06:43:15;;;;;;;1.73;1.00;;;20.70;84.10;;;;;;10529370;28;20045;-39
2022/10/23 06:48:18;;;;;;;1.67;1.23;;;20.70;84.00;;;;;;10530565;28;20571;-39
2022/10/23 06:53:22;;;;;;;2.50;1.25;;;20.70;84.20;;;;;;10530886;28;20051;-40
2022/10/23 06:58:24;;;;;;;3.33;1.60;;;20.70;84.00;;;;;;10531110;28;20077;-38
2022/10/23 07:03:27;;;;;;;;;;;20.70;84.20;;;;;;10526909;28;20405;-38
2022/10/23 07:08:29;;;;;;;1.50;1.15;;;20.70;84.20;;;;;;10528570;28;20299;-39
2022/10/23 07:13:31;;;;;;;1.50;1.15;;;20.70;84.00;;;;;;10527703;28;20040;-39
2022/10/23 07:18:34;;;;;;;1.30;1.10;;;20.70;84.00;;;;;;10529466;28;20074;-39
2022/10/23 07:23:37;;;;;;;3.60;1.13;;;20.70;84.10;;;;;;10521330;28;20056;-39
2022/10/23 07:28:40;;;;;;;2.13;1.17;;;20.90;84.10;;;;;;10524013;28;20082;-39
2022/10/23 07:33:43;;;;;;;2.67;1.17;;;20.70;84.20;;;;;;10525750;28;20151;-39
2022/10/23 07:38:45;;;;;;;1.77;1.10;;;20.70;84.10;;;;;;10526157;28;20370;-37
2022/10/23 07:43:47;;;;;;;1.35;1.08;;;20.70;83.90;;;;;;10520600;28;20476;-39
2022/10/23 07:48:50;;;;;;;2.80;1.42;;;20.70;83.90;;;;;;10523875;28;20568;-40
2022/10/23 07:53:52;;;;;;;2.38;1.02;;;20.70;84.00;;;;;;10530885;28;20060;-39
2022/10/23 07:58:54;;;;;;;2.03;1.20;;;20.70;84.60;;;;;;10531543;28;20197;-39
2022/10/23 08:03:57;;;;;;;1.88;1.20;;;20.70;83.90;;;;;;10531507;28;20094;-39
2022/10/23 08:08:59;;;;;;;5.57;1.33;;;20.80;84.20;;;;;;10532833;28;20138;-40
2022/10/23 08:14:03;;;;;;;;;;;20.70;84.00;;;;;;10531982;28;20071;-39
2022/10/23 08:19:07;;;;;;;1.63;1.00;;;20.70;84.10;;;;;;10532924;28;19930;-39
2022/10/23 08:24:12;;;;;;;3.17;1.40;;;20.70;84.20;;;;;;10531663;28;20514;-38
2022/10/23 08:29:14;;;;;;;1.23;1.10;;;20.70;84.20;;;;;;10528953;28;20542;-38
2022/10/23 08:34:17;;;;;;;4.75;1.27;;;20.70;84.70;;;;;;10529170;28;20044;-39
2022/10/23 08:39:19;;;;;;;2.88;1.38;;;20.70;86.00;;;;;;10529252;28;20051;-39
2022/10/23 08:44:26;;;;;;;1.58;0.95;;;20.60;85.80;;;;;;10530762;28;20126;-39
2022/10/23 08:49:49;;;;;;;1.80;1.15;;;20.60;86.70;;;;;;10530081;28;20044;-38
2022/10/23 08:55:11;;;;;;;3.95;1.15;;;20.40;86.70;;;;;;10527515;28;20532;-39
2022/10/23 09:00:15;;;;;;;2.77;1.40;;;20.60;86.60;;;;;;10529917;28;20052;-37
2022/10/23 09:05:25;;;;;;;1.55;1.20;;;20.70;86.40;;;;;;10528874;28;20076;-38
2022/10/23 09:10:54;;;;;;;2.90;1.20;;;20.70;86.80;;;;;;10532599;28;20039;-36
2022/10/23 09:16:06;;;;;;;1.80;1.13;;;20.70;86.50;;;;;;10527200;28;20090;-40
2022/10/23 09:21:11;;;;;;;2.60;1.00;;;20.80;87.00;;;;;;10532452;28;20048;-40
2022/10/23 09:26:15;;;;;;;3.85;1.10;;;20.90;86.60;;;;;;10530672;28;20082;-40
2022/10/23 09:31:19;;;;;;;4.13;1.50;;;20.80;87.10;;;;;;10530012;28;20075;-39
2022/10/23 09:36:24;;;;;;;4.53;0.90;;;20.90;86.50;;;;;;10530557;28;20087;-40
2022/10/23 09:41:29;;;;;;;5.78;1.52;;;21.00;86.10;;;;;;10530465;28;20051;-39
2022/10/23 09:46:38;;;;;;;2.05;1.10;;;20.50;86.40;;;;;;10532307;28;20040;-40
2022/10/23 09:51:53;;;;;;;3.67;1.30;;;21.00;86.70;;;;;;10530171;28;20511;-39
2022/10/23 09:56:58;;;;;;;1.63;1.20;;;21.00;86.40;;;;;;10527751;28;20079;-38
2022/10/23 10:02:03;;;;;;;3.15;1.55;;;21.10;86.20;;;;;;10530497;28;20067;-41
2022/10/23 10:07:18;;;;;;;1.63;1.08;;;21.10;86.90;;;;;;10530974;28;20044;-39
2022/10/23 10:12:31;;;;;;;2.05;1.10;;;21.10;86.40;;;;;;10524544;28;20170;-36
2022/10/23 10:17:40;;;;;;;3.20;1.50;;;21.00;87.50;;;;;;10528291;28;20079;-38
2022/10/23 10:22:53;;;;;;;5.70;1.35;;;21.10;86.60;;;;;;10527810;28;20064;-38
2022/10/23 10:28:07;;;;;;;3.58;1.48;;;21.10;86.60;;;;;;10522548;28;20158;-39
2022/10/23 10:33:16;;;;;;;2.85;1.17;;;21.10;86.90;;;;;;10525850;28;20574;-42
2022/10/23 10:38:47;;;;;;;9.52;1.42;;;21.00;86.90;;;;;;10523060;28;20052;-38
2022/10/23 10:43:59;;;;;;;1.85;1.15;;;21.00;87.10;;;;;;10516018;28;20838;-39
2022/10/23 10:49:10;;;;;;;0.82;0.80;;;21.30;87.90;;;;;;10522087;28;20036;-39
2022/10/23 10:54:25;;;;;;;1.88;1.13;;;21.00;87.30;;;;;;10524627;28;20131;-39
2022/10/23 10:59:30;;;;;;;3.28;1.38;;;21.00;86.90;;;;;;10528129;28;20079;-38
2022/10/23 11:04:40;;;;;;;3.55;1.70;;;21.00;86.70;;;;;;10523214;28;20044;-39
2022/10/23 11:09:44;;;;;;;4.28;1.55;;;21.10;85.70;;;;;;10523011;28;20040;-39
2022/10/23 11:14:46;;;;;;;6.18;2.50;;;21.60;86.20;;;;;;10525305;28;20071;-39
2022/10/23 11:19:50;;;;;;;;;;;20.70;87.50;;;;;;10527445;28;20048;-39
2022/10/23 11:25:24;;;;;;;3.22;1.48;;;21.10;85.80;;;;;;10526848;28;19920;-39
2022/10/23 11:30:30;;;;;;;3.90;1.63;;;21.30;85.10;;;;;;10530561;28;20044;-39
2022/10/23 11:35:54;;;;;;;2.90;1.80;;;21.00;85.80;;;;;;10533328;28;20127;-38
2022/10/23 11:41:00;;;;;;;3.13;1.80;;;21.20;85.30;;;;;;10532612;28;20071;-39
2022/10/23 11:46:12;;;;;;;3.25;1.55;;;21.00;85.90;;;;;;10529923;28;20040;-38
2022/10/23 11:51:32;;;;;;;1.73;1.47;;;21.00;86.80;;;;;;10531562;28;20075;-39
2022/10/23 11:56:39;;;;;;;5.07;2.30;;;20.90;86.80;;;;;;10537065;28;20555;-38
2022/10/23 12:01:44;;;;;;;3.45;1.70;;;20.10;87.90;;;;;;10529279;28;20114;-39
2022/10/23 12:06:49;;;;;;;5.97;2.25;;;20.90;86.50;;;;;;10535552;28;20047;-39
2022/10/23 12:12:14;;;;;;;3.80;1.13;;;20.90;86.50;;;;;;10533195;28;20101;-39
2022/10/23 12:17:39;;;;;;;3.55;1.55;;;21.00;85.60;;;;;;10531501;28;20052;-36
2022/10/23 12:22:50;;;;;;;2.28;1.45;;;21.00;85.90;;;;;;10529730;28;20048;-40
2022/10/23 12:28:00;;;;;;;2.75;1.70;;;21.00;85.90;;;;;;10531872;28;20071;-40
2022/10/23 12:33:16;;;;;;;4.00;1.95;;;21.00;85.70;;;;;;10528340;28;20040;-40
2022/10/23 12:38:20;;;;;;;2.85;1.80;;;20.80;86.90;;;;;;10530846;28;20074;-38
2022/10/23 12:43:26;;;;;;;4.72;2.40;;;21.00;86.10;;;;;;10531738;28;20067;-41
2022/10/23 12:48:28;;;;;;;2.75;1.77;;;20.80;89.50;;;;;;10529382;28;20113;-39
2022/10/23 12:53:30;;;;;;;2.88;1.83;;;20.60;88.30;;;;;;10531009;28;20040;-39
2022/10/23 12:58:36;;;;;;;5.05;1.60;;;21.00;86.60;;;;;;10532495;28;20055;-38
2022/10/23 13:03:38;;;;;;;4.03;1.50;;;20.40;84.80;;;;;;10527794;28;20047;-39
2022/10/23 13:08:43;;;;;;;4.57;1.88;;;21.20;85.30;;;;;;10530890;28;20044;-40
2022/10/23 13:13:48;;;;;;;4.95;1.67;;;21.30;84.10;;;;;;10528726;28;20119;-39
2022/10/23 13:18:50;;;;;;;11.32;2.28;;;21.20;85.00;;;;;;10532706;28;20048;-39
2022/10/23 13:23:53;;;;;;;3.78;2.08;;;21.10;87.40;;;;;;10536391;28;20093;-39
2022/10/23 13:28:57;;;;;;;6.10;2.20;;;21.00;87.10;;;;;;10532335;28;20427;-39
2022/10/23 13:34:30;;;;;;;3.65;1.75;;;21.00;87.10;;;;;;10532627;28;20517;-40
2022/10/23 13:39:32;;;;;;;;;;;21.30;87.30;;;;;;10455152;28;20446;-40
2022/10/23 13:44:36;;;;;;;4.10;1.95;;;21.60;85.70;;;;;;10531536;28;19987;-38
2022/10/23 13:49:38;;;;;;;5.22;2.05;;;21.80;87.00;;;;;;10530207;28;20056;-40
2022/10/23 13:54:40;;;;;;;6.88;2.03;;;22.10;83.50;;;;;;10536729;28;20060;-40
2022/10/23 13:59:43;;;;;;;6.90;2.08;;;21.80;84.60;;;;;;10521217;28;20052;-40
2022/10/23 14:04:46;;;;;;;3.78;1.80;;;22.10;85.50;;;;;;10529321;28;20135;-40
2022/10/23 14:09:47;;;;;;;2.97;1.73;;;21.70;85.20;;;;;;10530453;28;20044;-40
2022/10/23 14:14:52;;;;;;;5.53;1.83;;;22.00;85.30;;;;;;10529557;28;20044;-40
2022/10/23 14:19:54;;;;;;;3.80;1.80;;;22.30;83.70;;;;;;10530588;28;20083;-38
2022/10/23 14:24:56;;;;;;;;;;;21.70;83.20;;;;;;10522497;28;20142;-39
2022/10/23 14:29:59;;;;;;;5.43;1.87;;;21.90;85.60;;;;;;10528210;28;20378;-39
2022/10/23 14:35:05;;;;;;;1.30;1.17;;;21.70;87.80;;;;;;10523075;28;20048;-38
2022/10/23 14:40:08;;;;;;;2.67;1.63;;;21.90;84.30;;;;;;10531046;28;20047;-39
2022/10/23 14:45:12;;;;;;;2.40;1.65;;;21.50;87.10;;;;;;10530568;28;20074;-40
2022/10/23 14:50:15;;;;;;;4.38;1.88;;;21.50;88.80;;;;;;10529755;28;20608;-38
2022/10/23 14:55:17;;;;;;;5.80;2.00;;;21.40;87.80;;;;;;10528253;28;20051;-39
2022/10/23 15:00:21;;;;;;;2.95;1.70;;;21.10;89.20;;;;;;10527535;28;20559;-39
2022/10/23 15:05:22;;;;;;;4.32;1.40;;;21.20;87.90;;;;;;10537590;28;20040;-39
2022/10/23 15:10:24;;;;;;;5.57;1.70;;;21.40;87.70;;;;;;10538209;28;20048;-38
2022/10/23 15:15:27;;;;;;;5.13;2.05;;;21.20;88.50;;;;;;10537530;28;20056;-38
2022/10/23 15:20:29;;;;;;;5.15;2.55;;;21.10;90.70;;;;;;10532410;28;20087;-37
2022/10/23 15:25:31;;;;;;;4.55;2.08;;;20.80;91.10;;;;;;10535439;28;20142;-39
2022/10/23 15:30:34;;;;;;;3.33;1.27;;;20.80;91.10;;;;;;10534945;28;20067;-39
2022/10/23 15:35:36;;;;;;;7.00;1.80;;;20.90;90.70;;;;;;10534204;28;20044;-46
2022/10/23 15:40:38;;;;;;;3.15;1.58;;;21.10;90.50;;;;;;10532952;28;20062;-38
2022/10/23 15:45:42;;;;;;;6.43;2.08;;;21.60;87.70;;;;;;10533238;28;20423;-39
2022/10/23 15:50:44;;;;;;;7.45;1.83;;;21.70;87.60;;;;;;10530872;28;20808;-40
2022/10/23 15:55:47;;;;;;;3.50;1.90;;;21.90;86.00;;;;;;10533462;28;20040;-39
2022/10/23 16:00:50;;;;;;;3.65;1.40;;;21.80;86.10;;;;;;10538720;28;20052;-39
2022/10/23 16:05:52;;;;;;;7.47;1.33;;;21.60;87.50;;;;;;10533397;28;20040;-39
2022/10/23 16:10:53;;;;;;;3.63;1.85;;;21.60;87.80;;;;;;10530863;28;20087;-40
2022/10/23 16:15:56;;;;;;;2.30;1.60;;;21.40;89.10;;;;;;10534271;28;20044;-40
2022/10/23 16:20:58;;;;;;;5.40;1.92;;;21.00;89.90;;;;;;10533169;28;20097;-39
2022/10/23 16:26:05;;;;;;;2.60;1.40;;;21.20;90.30;;;;;;10532071;28;20431;-38
2022/10/23 16:31:10;;;;;;;5.13;1.52;;;21.40;88.60;;;;;;10533820;28;20040;-38
2022/10/23 16:36:12;;;;;;;1.92;1.42;;;21.50;87.40;;;;;;10533264;28;20209;-40
2022/10/23 16:41:13;;;;;;;3.83;2.47;;;21.50;88.10;;;;;;10530589;28;20140;-39
2022/10/23 16:46:20;;;;;;;6.30;2.80;;;22.00;87.00;;;;;;10532729;28;20450;-39
2022/10/23 16:51:23;;;;;;;7.45;2.60;;;21.60;86.80;;;;;;10534578;28;20131;-41
2022/10/23 16:56:27;;;;;;;9.65;3.65;;;21.50;86.90;;;;;;10537780;28;20047;-38
2022/10/23 17:01:32;;;;;;;10.95;3.45;;;21.60;86.50;;;;;;10531476;28;20128;-35
2022/10/23 17:06:35;;;;;;;6.95;3.22;;;21.30;88.50;;;;;;10531131;28;20686;-39
2022/10/23 17:11:38;;;;;;;11.20;5.32;;;20.80;90.70;;;;;;10530771;28;20048;-39
2022/10/23 17:16:44;;;;;;;9.60;4.43;;;20.60;91.50;;;;;;10530550;28;20453;-39
2022/10/23 17:21:46;;;;;;;14.05;5.55;;;20.80;90.80;;;;;;10529370;28;20063;-38
2022/10/23 17:26:48;;;;;;;15.02;6.22;;;20.90;90.60;;;;;;10523503;28;20125;-38
2022/10/23 17:31:51;;;;;;;;;;;21.10;90.60;;;;;;10533116;28;20139;-39
2022/10/23 17:36:55;;;;;;;10.88;5.53;;;20.80;90.80;;;;;;10532411;28;19920;-39
2022/10/23 17:41:57;;;;;;;16.27;6.45;;;20.70;91.40;;;;;;10531302;28;20465;-38
2022/10/23 17:47:00;;;;;;;13.45;5.40;;;20.70;91.50;;;;;;10532470;28;20167;-38
2022/10/23 17:52:02;;;;;;;21.00;8.48;;;20.50;92.00;;;;;;10531969;28;20044;-39
2022/10/23 17:57:04;;;;;;;21.08;8.73;;;21.10;90.60;;;;;;10532012;28;20054;-39
2022/10/23 18:02:09;;;;;;;17.52;8.43;;;21.10;90.50;;;;;;10521394;28;20076;-40
2022/10/23 18:07:11;;;;;;;18.17;7.00;;;21.10;91.40;;;;;;10528080;28;20036;-38
2022/10/23 18:12:13;;;;;;;21.80;8.88;;;21.30;90.30;;;;;;10523874;28;20032;-39
2022/10/23 18:17:17;;;;;;;22.58;8.77;;;21.50;90.10;;;;;;10529609;28;20052;-38
2022/10/23 18:22:18;;;;;;;21.20;9.02;;;21.30;91.50;;;;;;10524723;28;20052;-39
2022/10/23 18:27:20;;;;;;;21.15;9.95;;;21.50;90.10;;;;;;10529612;28;20130;-44
2022/10/23 18:32:24;;;;;;;19.45;7.45;;;21.30;90.70;;;;;;10530029;28;20476;-39
2022/10/23 18:37:25;;;;;;;8.55;3.38;;;21.00;92.00;;;;;;10533729;28;20051;-38
2022/10/23 18:42:27;;;;;;;14.15;5.57;;;20.60;93.40;;;;;;10528165;28;20082;-37
2022/10/23 18:47:30;;;;;;;9.40;4.53;;;20.30;95.30;;;;;;10529350;28;20047;-36
2022/10/23 18:52:32;;;;;;;16.17;4.80;;;18.50;99.90;;;;;;10525188;28;20048;-36
2022/10/23 18:57:35;;;;;;;10.95;5.57;;;18.50;99.50;;;;;;10529778;28;20152;-35
2022/10/23 19:02:38;;;;;;;12.65;6.20;;;19.40;96.20;;;;;;10527661;28;20558;-37
2022/10/23 19:07:45;;;;;;;18.33;6.70;;;21.20;93.10;;;;;;10524109;28;20052;-38
2022/10/23 19:12:47;;;;;;;17.02;8.15;;;21.20;90.70;;;;;;10525223;28;20454;-39
2022/10/23 19:17:50;;;;;;;17.52;7.80;;;21.30;90.00;;;;;;10527368;28;20056;-40
2022/10/23 19:22:54;;;;;;;19.92;8.55;;;21.40;89.60;;;;;;10537416;28;20477;-37
2022/10/23 19:27:57;;;;;;;24.95;8.40;;;21.50;89.50;;;;;;10528210;28;20049;-38
2022/10/23 19:33:00;;;;;;;20.52;9.45;;;21.50;88.90;;;;;;10528175;28;20078;-38
2022/10/23 19:38:02;;;;;;;18.65;8.38;;;21.50;88.90;;;;;;10528536;28;20048;-38
2022/10/23 19:43:04;;;;;;;22.55;10.25;;;21.90;88.70;;;;;;10527365;28;20426;-38
2022/10/23 19:48:07;;;;;;;21.75;9.45;;;21.50;88.30;;;;;;10530975;28;20044;-39
2022/10/23 19:53:10;;;;;;;19.48;9.25;;;21.50;88.20;;;;;;10534691;28;20074;-38
2022/10/23 19:58:11;;;;;;;21.17;9.52;;;21.50;88.10;;;;;;10534922;28;20059;-39
2022/10/23 20:03:15;;;;;;;24.75;10.27;;;21.50;88.00;;;;;;10531055;28;20071;-39
2022/10/23 20:08:17;;;;;;;22.23;10.95;;;21.50;88.50;;;;;;10535482;28;20134;-38
2022/10/23 20:13:19;;;;;;;22.80;10.43;;;21.50;87.80;;;;;;10537405;28;20044;-39
2022/10/23 20:18:22;;;;;;;20.38;9.45;;;21.30;87.70;;;;;;10523900;28;20086;-39
2022/10/23 20:23:24;;;;;;;21.35;9.25;;;21.50;87.80;;;;;;10528761;28;20048;-40
2022/10/23 20:28:26;;;;;;;23.05;10.55;;;21.50;87.90;;;;;;10535187;28;20055;-39
2022/10/23 20:33:29;;;;;;;22.02;9.57;;;21.40;87.80;;;;;;10531338;28;20108;-38
2022/10/23 20:38:31;;;;;;;20.67;9.65;;;21.50;87.70;;;;;;10530120;28;20103;-39
2022/10/23 20:43:33;;;;;;;25.35;9.57;;;21.40;87.60;;;;;;10529846;28;20048;-40
2022/10/23 20:48:37;;;;;;;17.98;9.40;;;21.40;87.80;;;;;;10536425;28;20103;-36
2022/10/23 20:53:40;;;;;;;22.77;9.80;;;21.40;87.90;;;;;;10530080;28;20048;-38
2022/10/23 20:58:42;;;;;;;19.88;8.90;;;21.40;87.70;;;;;;10524462;28;20048;-40
2022/10/23 21:03:49;;;;;;;17.88;8.45;;;21.30;87.70;;;;;;10529638;28;20105;-44
2022/10/23 21:08:55;;;;;;;16.20;7.90;;;21.40;87.80;;;;;;10531904;28;20079;-39
2022/10/23 21:13:58;;;;;;;17.95;8.63;;;21.40;87.70;;;;;;10535361;28;20056;-38
2022/10/23 21:19:03;;;;;;;15.68;7.20;;;21.30;88.20;;;;;;10536750;28;20052;-38
2022/10/23 21:24:07;;;;;;;16.88;7.95;;;21.20;88.60;;;;;;10529823;28;20430;-39
2022/10/23 21:29:10;;;;;;;17.70;7.05;;;21.20;88.50;;;;;;10536048;28;20647;-38
2022/10/23 21:34:13;;;;;;;12.32;6.28;;;21.20;88.30;;;;;;10537477;28;20040;-38
2022/10/23 21:39:15;;;;;;;13.65;7.10;;;21.20;88.10;;;;;;10547267;28;20079;-39
2022/10/23 21:44:16;;;;;;;11.88;6.22;;;21.20;88.60;;;;;;10523327;28;20163;-40
2022/10/23 21:49:20;;;;;;;14.63;7.45;;;21.60;88.10;;;;;;10526042;28;20070;-40
2022/10/23 21:54:21;;;;;;;16.45;6.78;;;21.20;88.10;;;;;;10529493;28;20126;-36
2022/10/23 21:59:26;;;;;;;12.15;6.53;;;21.20;87.90;;;;;;10532287;28;20043;-39
2022/10/23 22:04:29;;;;;;;10.52;5.88;;;21.20;88.00;;;;;;10532418;28;20052;-39
2022/10/23 22:09:32;;;;;;;10.52;5.78;;;21.10;88.80;;;;;;10538197;27;20414;-38
2022/10/23 22:14:36;;;;;;;9.30;5.32;;;21.00;89.20;;;;;;10532364;28;20079;-38
2022/10/23 22:19:39;;;;;;;10.40;4.63;;;20.90;89.70;;;;;;10526347;28;20167;-38
2022/10/23 22:24:41;;;;;;;9.00;5.43;;;20.90;89.40;;;;;;10529544;28;20040;-39
2022/10/23 22:29:43;;;;;;;9.07;5.20;;;20.80;90.10;;;;;;10532498;28;20048;-41
2022/10/23 22:34:46;;;;;;;7.85;3.65;;;20.90;89.50;;;;;;10532999;28;20044;-38
2022/10/23 22:39:50;;;;;;;10.63;5.00;;;20.40;90.00;;;;;;10526983;28;20084;-39
2022/10/23 22:44:52;;;;;;;9.60;4.10;;;20.60;90.50;;;;;;10532164;28;20047;-39
2022/10/23 22:49:55;;;;;;;7.13;3.65;;;20.50;90.30;;;;;;10527650;28;20122;-39
2022/10/23 22:54:57;;;;;;;11.82;5.00;;;20.60;89.20;;;;;;10527820;28;20480;-38
2022/10/23 22:59:59;;;;;;;7.97;3.58;;;20.40;90.80;;;;;;10528522;28;20059;-39
2022/10/23 23:05:02;;;;;;;9.10;4.15;;;20.30;90.00;;;;;;10523780;28;20144;-39
2022/10/23 23:10:04;;;;;;;5.07;3.03;;;20.80;89.60;;;;;;10530367;28;20043;-38
2022/10/23 23:15:07;;;;;;;6.47;3.53;;;20.70;88.80;;;;;;10535742;28;20086;-39
2022/10/23 23:20:10;;;;;;;6.40;3.30;;;20.80;89.30;;;;;;10523368;28;20555;-38
2022/10/23 23:25:12;;;;;;;8.07;3.90;;;20.90;88.90;;;;;;10535099;28;20128;-38
2022/10/23 23:30:14;;;;;;;6.47;3.67;;;21.00;88.20;;;;;;10541712;28;20047;-38
2022/10/23 23:35:18;;;;;;;6.40;3.65;;;21.00;87.40;;;;;;10536932;28;20047;-38
2022/10/23 23:40:19;;;;;;;8.10;3.40;;;21.00;87.60;;;;;;10536797;28;20056;-38
2022/10/23 23:45:21;;;;;;;8.20;3.65;;;21.10;87.50;;;;;;10535235;28;20393;-38
2022/10/23 23:50:25;;;;;;;6.53;3.10;;;21.00;87.20;;;;;;10534422;28;20068;-40
2022/10/23 23:55:26;;;;;;;7.32;3.67;;;21.00;87.20;;;;;;10542104;28;20075;-39
